sensor_id;sensor_type;location;lat;lon;timestamp;P1;durP1;ratioP1;P2;durP2;ratioP2
58553;SDS011;48119;53.218;6.576;2022-08-03T00:02:06;8.35;;;2.83;;
58553;SDS011;48119;53.218;6.576;2022-08-03T00:04:37;8.75;;;2.75;;
58553;SDS011;48119;53.218;6.576;2022-08-03T00:07:03;7.38;;;2.20;;
58553;SDS011;48119;53.218;6.576;2022-08-03T00:09:32;10.63;;;2.75;;
58553;SDS011;48119;53.218;6.576;2022-08-03T00:12:00;6.75;;;2.58;;
58553;SDS011;48119;53.218;6.576;2022-08-03T00:14:28;8.00;;;2.60;;
58553;SDS011;48119;53.218;6.576;2022-08-03T00:16:59;6.15;;;2.47;;
58553;SDS011;48119;53.218;6.576;2022-08-03T00:19:25;4.70;;;2.05;;
58553;SDS011;48119;53.218;6.576;2022-08-03T00:21:53;7.10;;;2.10;;
58553;SDS011;48119;53.218;6.576;2022-08-03T00:24:19;4.20;;;2.05;;
58553;SDS011;48119;53.218;6.576;2022-08-03T00:26:50;5.80;;;2.25;;
58553;SDS011;48119;53.218;6.576;2022-08-03T00:29:19;5.07;;;1.90;;
58553;SDS011;48119;53.218;6.576;2022-08-03T00:31:53;8.38;;;2.15;;
58553;SDS011;48119;53.218;6.576;2022-08-03T00:34:27;7.65;;;3.35;;
58553;SDS011;48119;53.218;6.576;2022-08-03T00:36:53;13.68;;;3.55;;
58553;SDS011;48119;53.218;6.576;2022-08-03T00:39:28;8.50;;;2.72;;
58553;SDS011;48119;53.218;6.576;2022-08-03T00:41:53;10.70;;;2.42;;
58553;SDS011;48119;53.218;6.576;2022-08-03T00:44:19;8.13;;;2.35;;
58553;SDS011;48119;53.218;6.576;2022-08-03T00:46:48;6.68;;;2.10;;
58553;SDS011;48119;53.218;6.576;2022-08-03T00:49:14;6.88;;;2.45;;
58553;SDS011;48119;53.218;6.576;2022-08-03T00:51:42;13.00;;;3.90;;
58553;SDS011;48119;53.218;6.576;2022-08-03T00:54:16;8.85;;;2.75;;
58553;SDS011;48119;53.218;6.576;2022-08-03T00:56:43;9.05;;;2.88;;
58553;SDS011;48119;53.218;6.576;2022-08-03T00:59:22;8.13;;;2.85;;
58553;SDS011;48119;53.218;6.576;2022-08-03T01:01:52;9.25;;;3.78;;
58553;SDS011;48119;53.218;6.576;2022-08-03T01:04:20;6.10;;;3.03;;
58553;SDS011;48119;53.218;6.576;2022-08-03T01:07:05;13.05;;;3.05;;
58553;SDS011;48119;53.218;6.576;2022-08-03T01:12:45;9.57;;;2.97;;
58553;SDS011;48119;53.218;6.576;2022-08-03T01:15:28;6.55;;;2.60;;
58553;SDS011;48119;53.218;6.576;2022-08-03T01:21:30;8.75;;;2.83;;
58553;SDS011;48119;53.218;6.576;2022-08-03T01:27:28;5.55;;;2.15;;
58553;SDS011;48119;53.218;6.576;2022-08-03T01:30:08;7.53;;;2.03;;
58553;SDS011;48119;53.218;6.576;2022-08-03T01:35:21;7.10;;;1.92;;
58553;SDS011;48119;53.218;6.576;2022-08-03T01:38:04;8.55;;;2.65;;
58553;SDS011;48119;53.218;6.576;2022-08-03T01:40:38;5.57;;;2.20;;
58553;SDS011;48119;53.218;6.576;2022-08-03T01:43:09;7.90;;;2.00;;
58553;SDS011;48119;53.218;6.576;2022-08-03T01:45:40;5.43;;;2.38;;
58553;SDS011;48119;53.218;6.576;2022-08-03T01:48:08;8.00;;;2.38;;
58553;SDS011;48119;53.218;6.576;2022-08-03T01:50:36;10.38;;;2.30;;
58553;SDS011;48119;53.218;6.576;2022-08-03T01:53:09;6.13;;;2.25;;
58553;SDS011;48119;53.218;6.576;2022-08-03T01:55:39;5.43;;;1.92;;
58553;SDS011;48119;53.218;6.576;2022-08-03T01:58:06;4.85;;;1.58;;
58553;SDS011;48119;53.218;6.576;2022-08-03T02:00:40;6.97;;;2.22;;
58553;SDS011;48119;53.218;6.576;2022-08-03T02:03:07;7.03;;;1.90;;
58553;SDS011;48119;53.218;6.576;2022-08-03T02:05:36;4.70;;;2.20;;
58553;SDS011;48119;53.218;6.576;2022-08-03T02:08:06;6.72;;;2.25;;
58553;SDS011;48119;53.218;6.576;2022-08-03T02:10:37;5.03;;;1.88;;
58553;SDS011;48119;53.218;6.576;2022-08-03T02:13:13;5.47;;;2.10;;
58553;SDS011;48119;53.218;6.576;2022-08-03T02:15:40;6.68;;;1.98;;
58553;SDS011;48119;53.218;6.576;2022-08-03T02:18:09;4.80;;;1.88;;
58553;SDS011;48119;53.218;6.576;2022-08-03T02:20:40;6.97;;;1.70;;
58553;SDS011;48119;53.218;6.576;2022-08-03T02:23:07;5.40;;;1.80;;
58553;SDS011;48119;53.218;6.576;2022-08-03T02:25:34;5.55;;;1.98;;
58553;SDS011;48119;53.218;6.576;2022-08-03T02:28:09;8.88;;;2.75;;
58553;SDS011;48119;53.218;6.576;2022-08-03T02:30:39;7.45;;;2.22;;
58553;SDS011;48119;53.218;6.576;2022-08-03T02:33:11;6.28;;;2.50;;
58553;SDS011;48119;53.218;6.576;2022-08-03T02:35:45;8.50;;;1.55;;
58553;SDS011;48119;53.218;6.576;2022-08-03T02:38:15;7.88;;;2.08;;
58553;SDS011;48119;53.218;6.576;2022-08-03T02:40:47;7.40;;;2.17;;
58553;SDS011;48119;53.218;6.576;2022-08-03T02:43:20;4.13;;;2.20;;
58553;SDS011;48119;53.218;6.576;2022-08-03T02:45:48;6.25;;;1.90;;
58553;SDS011;48119;53.218;6.576;2022-08-03T02:48:20;7.93;;;2.65;;
58553;SDS011;48119;53.218;6.576;2022-08-03T02:50:50;5.68;;;1.90;;
58553;SDS011;48119;53.218;6.576;2022-08-03T02:53:17;9.52;;;2.30;;
58553;SDS011;48119;53.218;6.576;2022-08-03T02:55:45;5.57;;;2.45;;
58553;SDS011;48119;53.218;6.576;2022-08-03T02:58:13;6.57;;;2.15;;
58553;SDS011;48119;53.218;6.576;2022-08-03T03:00:50;7.80;;;2.17;;
58553;SDS011;48119;53.218;6.576;2022-08-03T03:03:17;5.97;;;2.08;;
58553;SDS011;48119;53.218;6.576;2022-08-03T03:05:47;4.28;;;1.50;;
58553;SDS011;48119;53.218;6.576;2022-08-03T03:08:15;6.35;;;2.53;;
58553;SDS011;48119;53.218;6.576;2022-08-03T03:10:43;6.82;;;2.78;;
58553;SDS011;48119;53.218;6.576;2022-08-03T03:13:09;8.68;;;2.13;;
58553;SDS011;48119;53.218;6.576;2022-08-03T03:15:36;5.57;;;1.83;;
58553;SDS011;48119;53.218;6.576;2022-08-03T03:18:04;7.65;;;2.22;;
58553;SDS011;48119;53.218;6.576;2022-08-03T03:20:35;12.48;;;2.22;;
58553;SDS011;48119;53.218;6.576;2022-08-03T03:23:03;6.82;;;1.88;;
58553;SDS011;48119;53.218;6.576;2022-08-03T03:25:29;5.90;;;2.00;;
58553;SDS011;48119;53.218;6.576;2022-08-03T03:27:59;7.47;;;2.33;;
58553;SDS011;48119;53.218;6.576;2022-08-03T03:30:25;11.93;;;2.60;;
58553;SDS011;48119;53.218;6.576;2022-08-03T03:32:52;4.40;;;1.92;;
58553;SDS011;48119;53.218;6.576;2022-08-03T03:35:20;6.28;;;1.90;;
58553;SDS011;48119;53.218;6.576;2022-08-03T03:37:46;5.72;;;1.83;;
58553;SDS011;48119;53.218;6.576;2022-08-03T03:40:12;8.00;;;2.10;;
58553;SDS011;48119;53.218;6.576;2022-08-03T03:42:39;6.85;;;2.30;;
58553;SDS011;48119;53.218;6.576;2022-08-03T03:45:10;4.28;;;2.25;;
58553;SDS011;48119;53.218;6.576;2022-08-03T03:47:39;6.95;;;2.45;;
58553;SDS011;48119;53.218;6.576;2022-08-03T03:50:05;5.93;;;2.63;;
58553;SDS011;48119;53.218;6.576;2022-08-03T03:52:42;5.20;;;2.47;;
58553;SDS011;48119;53.218;6.576;2022-08-03T03:55:14;9.43;;;2.10;;
58553;SDS011;48119;53.218;6.576;2022-08-03T03:57:43;5.05;;;2.00;;
58553;SDS011;48119;53.218;6.576;2022-08-03T04:00:13;9.80;;;2.20;;
58553;SDS011;48119;53.218;6.576;2022-08-03T04:02:40;6.93;;;2.08;;
58553;SDS011;48119;53.218;6.576;2022-08-03T04:05:06;8.25;;;2.05;;
58553;SDS011;48119;53.218;6.576;2022-08-03T04:07:56;5.80;;;2.40;;
58553;SDS011;48119;53.218;6.576;2022-08-03T04:10:45;6.10;;;2.28;;
58553;SDS011;48119;53.218;6.576;2022-08-03T04:13:26;7.32;;;2.13;;
58553;SDS011;48119;53.218;6.576;2022-08-03T04:15:58;4.38;;;2.53;;
58553;SDS011;48119;53.218;6.576;2022-08-03T04:18:25;9.10;;;2.22;;
58553;SDS011;48119;53.218;6.576;2022-08-03T04:20:53;7.47;;;2.20;;
58553;SDS011;48119;53.218;6.576;2022-08-03T04:23:21;7.55;;;2.10;;
58553;SDS011;48119;53.218;6.576;2022-08-03T04:25:50;8.00;;;2.08;;
58553;SDS011;48119;53.218;6.576;2022-08-03T04:28:18;6.65;;;2.17;;
58553;SDS011;48119;53.218;6.576;2022-08-03T04:30:46;9.50;;;2.70;;
58553;SDS011;48119;53.218;6.576;2022-08-03T04:33:17;7.78;;;2.08;;
58553;SDS011;48119;53.218;6.576;2022-08-03T04:35:47;4.80;;;2.33;;
58553;SDS011;48119;53.218;6.576;2022-08-03T04:38:14;7.28;;;2.33;;
58553;SDS011;48119;53.218;6.576;2022-08-03T04:40:47;7.15;;;1.98;;
58553;SDS011;48119;53.218;6.576;2022-08-03T04:43:15;7.15;;;2.95;;
58553;SDS011;48119;53.218;6.576;2022-08-03T04:45:42;10.88;;;3.05;;
58553;SDS011;48119;53.218;6.576;2022-08-03T04:48:12;7.38;;;2.60;;
58553;SDS011;48119;53.218;6.576;2022-08-03T04:50:41;7.25;;;2.38;;
58553;SDS011;48119;53.218;6.576;2022-08-03T04:53:08;9.02;;;2.75;;
58553;SDS011;48119;53.218;6.576;2022-08-03T04:55:34;8.88;;;2.80;;
58553;SDS011;48119;53.218;6.576;2022-08-03T04:58:00;8.40;;;3.28;;
58553;SDS011;48119;53.218;6.576;2022-08-03T05:00:27;6.63;;;2.30;;
58553;SDS011;48119;53.218;6.576;2022-08-03T05:02:53;5.97;;;2.05;;
58553;SDS011;48119;53.218;6.576;2022-08-03T05:05:20;9.65;;;2.63;;
58553;SDS011;48119;53.218;6.576;2022-08-03T05:07:46;9.23;;;2.55;;
58553;SDS011;48119;53.218;6.576;2022-08-03T05:10:12;7.60;;;2.60;;
58553;SDS011;48119;53.218;6.576;2022-08-03T05:12:38;10.15;;;3.15;;
58553;SDS011;48119;53.218;6.576;2022-08-03T05:15:05;6.13;;;2.42;;
58553;SDS011;48119;53.218;6.576;2022-08-03T05:17:31;7.65;;;2.80;;
58553;SDS011;48119;53.218;6.576;2022-08-03T05:20:01;7.82;;;3.10;;
58553;SDS011;48119;53.218;6.576;2022-08-03T05:22:28;4.25;;;2.65;;
58553;SDS011;48119;53.218;6.576;2022-08-03T05:24:54;9.98;;;2.72;;
58553;SDS011;48119;53.218;6.576;2022-08-03T05:27:27;8.73;;;3.00;;
58553;SDS011;48119;53.218;6.576;2022-08-03T05:29:53;8.80;;;2.55;;
58553;SDS011;48119;53.218;6.576;2022-08-03T05:32:21;5.93;;;2.40;;
58553;SDS011;48119;53.218;6.576;2022-08-03T05:34:50;8.10;;;2.03;;
58553;SDS011;48119;53.218;6.576;2022-08-03T05:37:16;5.93;;;2.40;;
58553;SDS011;48119;53.218;6.576;2022-08-03T05:39:42;5.78;;;2.63;;
58553;SDS011;48119;53.218;6.576;2022-08-03T05:42:08;5.65;;;2.30;;
58553;SDS011;48119;53.218;6.576;2022-08-03T05:44:34;13.15;;;2.72;;
58553;SDS011;48119;53.218;6.576;2022-08-03T05:47:03;7.32;;;2.22;;
58553;SDS011;48119;53.218;6.576;2022-08-03T05:49:29;7.40;;;2.17;;
58553;SDS011;48119;53.218;6.576;2022-08-03T05:51:55;10.45;;;2.20;;
58553;SDS011;48119;53.218;6.576;2022-08-03T05:54:21;10.00;;;2.65;;
58553;SDS011;48119;53.218;6.576;2022-08-03T05:56:46;8.10;;;2.80;;
58553;SDS011;48119;53.218;6.576;2022-08-03T05:59:12;8.50;;;2.88;;
58553;SDS011;48119;53.218;6.576;2022-08-03T06:01:45;11.73;;;2.58;;
58553;SDS011;48119;53.218;6.576;2022-08-03T06:04:12;6.15;;;2.55;;
58553;SDS011;48119;53.218;6.576;2022-08-03T06:06:38;15.07;;;2.90;;
58553;SDS011;48119;53.218;6.576;2022-08-03T06:09:04;7.90;;;2.90;;
58553;SDS011;48119;53.218;6.576;2022-08-03T06:11:32;5.00;;;2.53;;
58553;SDS011;48119;53.218;6.576;2022-08-03T06:13:58;6.18;;;2.45;;
58553;SDS011;48119;53.218;6.576;2022-08-03T06:16:24;6.45;;;2.63;;
58553;SDS011;48119;53.218;6.576;2022-08-03T06:18:49;11.65;;;3.08;;
58553;SDS011;48119;53.218;6.576;2022-08-03T06:21:15;5.68;;;2.38;;
58553;SDS011;48119;53.218;6.576;2022-08-03T06:23:44;7.15;;;2.45;;
58553;SDS011;48119;53.218;6.576;2022-08-03T06:26:11;9.95;;;3.38;;
58553;SDS011;48119;53.218;6.576;2022-08-03T06:28:37;8.80;;;3.20;;
58553;SDS011;48119;53.218;6.576;2022-08-03T06:31:03;9.85;;;3.10;;
58553;SDS011;48119;53.218;6.576;2022-08-03T06:33:30;9.32;;;2.95;;
58553;SDS011;48119;53.218;6.576;2022-08-03T06:35:56;12.15;;;3.70;;
58553;SDS011;48119;53.218;6.576;2022-08-03T06:38:29;4.75;;;2.15;;
58553;SDS011;48119;53.218;6.576;2022-08-03T06:40:55;15.20;;;3.15;;
58553;SDS011;48119;53.218;6.576;2022-08-03T06:43:24;6.43;;;2.72;;
58553;SDS011;48119;53.218;6.576;2022-08-03T06:45:49;8.63;;;3.72;;
58553;SDS011;48119;53.218;6.576;2022-08-03T06:48:15;9.32;;;2.55;;
58553;SDS011;48119;53.218;6.576;2022-08-03T06:50:44;5.55;;;2.58;;
58553;SDS011;48119;53.218;6.576;2022-08-03T06:53:10;9.27;;;3.17;;
58553;SDS011;48119;53.218;6.576;2022-08-03T06:55:38;7.15;;;3.10;;
58553;SDS011;48119;53.218;6.576;2022-08-03T06:58:09;7.65;;;2.53;;
58553;SDS011;48119;53.218;6.576;2022-08-03T07:00:37;12.40;;;2.60;;
58553;SDS011;48119;53.218;6.576;2022-08-03T07:03:03;7.78;;;3.05;;
58553;SDS011;48119;53.218;6.576;2022-08-03T07:05:29;10.68;;;3.00;;
58553;SDS011;48119;53.218;6.576;2022-08-03T07:07:57;14.25;;;3.83;;
58553;SDS011;48119;53.218;6.576;2022-08-03T07:10:24;9.45;;;3.42;;
58553;SDS011;48119;53.218;6.576;2022-08-03T07:12:50;11.20;;;3.80;;
58553;SDS011;48119;53.218;6.576;2022-08-03T07:15:18;10.93;;;2.75;;
58553;SDS011;48119;53.218;6.576;2022-08-03T07:17:47;11.52;;;3.42;;
58553;SDS011;48119;53.218;6.576;2022-08-03T07:20:13;8.27;;;3.25;;
58553;SDS011;48119;53.218;6.576;2022-08-03T07:22:41;11.05;;;3.00;;
58553;SDS011;48119;53.218;6.576;2022-08-03T07:25:07;12.77;;;3.33;;
58553;SDS011;48119;53.218;6.576;2022-08-03T07:27:33;12.05;;;3.15;;
58553;SDS011;48119;53.218;6.576;2022-08-03T07:29:59;7.55;;;2.47;;
58553;SDS011;48119;53.218;6.576;2022-08-03T07:32:25;13.18;;;3.47;;
58553;SDS011;48119;53.218;6.576;2022-08-03T07:34:52;11.48;;;2.97;;
58553;SDS011;48119;53.218;6.576;2022-08-03T07:37:18;11.07;;;3.72;;
58553;SDS011;48119;53.218;6.576;2022-08-03T07:39:44;14.85;;;3.47;;
58553;SDS011;48119;53.218;6.576;2022-08-03T07:42:10;9.50;;;4.03;;
58553;SDS011;48119;53.218;6.576;2022-08-03T07:44:38;9.10;;;3.50;;
58553;SDS011;48119;53.218;6.576;2022-08-03T07:47:08;7.32;;;3.13;;
58553;SDS011;48119;53.218;6.576;2022-08-03T07:49:38;12.57;;;3.35;;
58553;SDS011;48119;53.218;6.576;2022-08-03T07:52:15;10.20;;;3.58;;
58553;SDS011;48119;53.218;6.576;2022-08-03T07:55:00;7.13;;;3.20;;
58553;SDS011;48119;53.218;6.576;2022-08-03T07:57:26;6.47;;;2.80;;
58553;SDS011;48119;53.218;6.576;2022-08-03T07:59:51;8.30;;;3.30;;
58553;SDS011;48119;53.218;6.576;2022-08-03T08:02:17;10.25;;;3.50;;
58553;SDS011;48119;53.218;6.576;2022-08-03T08:04:45;7.13;;;3.05;;
58553;SDS011;48119;53.218;6.576;2022-08-03T08:07:11;7.72;;;3.28;;
58553;SDS011;48119;53.218;6.576;2022-08-03T08:09:37;8.82;;;3.03;;
58553;SDS011;48119;53.218;6.576;2022-08-03T08:12:07;11.35;;;3.10;;
58553;SDS011;48119;53.218;6.576;2022-08-03T08:14:35;11.85;;;3.53;;
58553;SDS011;48119;53.218;6.576;2022-08-03T08:17:01;16.23;;;4.50;;
58553;SDS011;48119;53.218;6.576;2022-08-03T08:19:27;13.18;;;3.30;;
58553;SDS011;48119;53.218;6.576;2022-08-03T08:21:53;8.73;;;3.80;;
58553;SDS011;48119;53.218;6.576;2022-08-03T08:24:20;6.80;;;2.50;;
58553;SDS011;48119;53.218;6.576;2022-08-03T08:26:46;12.65;;;3.40;;
58553;SDS011;48119;53.218;6.576;2022-08-03T08:29:12;12.00;;;4.00;;
58553;SDS011;48119;53.218;6.576;2022-08-03T08:31:38;12.65;;;3.75;;
58553;SDS011;48119;53.218;6.576;2022-08-03T08:34:04;7.40;;;3.13;;
58553;SDS011;48119;53.218;6.576;2022-08-03T08:36:34;10.63;;;3.15;;
58553;SDS011;48119;53.218;6.576;2022-08-03T08:39:00;13.23;;;3.60;;
58553;SDS011;48119;53.218;6.576;2022-08-03T08:41:28;12.43;;;3.50;;
58553;SDS011;48119;53.218;6.576;2022-08-03T08:43:57;7.68;;;2.70;;
58553;SDS011;48119;53.218;6.576;2022-08-03T08:46:23;8.77;;;2.95;;
58553;SDS011;48119;53.218;6.576;2022-08-03T08:48:52;7.53;;;3.55;;
58553;SDS011;48119;53.218;6.576;2022-08-03T08:51:19;16.80;;;4.00;;
58553;SDS011;48119;53.218;6.576;2022-08-03T08:53:47;8.43;;;3.30;;
58553;SDS011;48119;53.218;6.576;2022-08-03T08:56:16;11.45;;;3.88;;
58553;SDS011;48119;53.218;6.576;2022-08-03T08:58:48;10.85;;;3.95;;
58553;SDS011;48119;53.218;6.576;2022-08-03T09:01:20;9.98;;;3.40;;
58553;SDS011;48119;53.218;6.576;2022-08-03T09:03:46;7.60;;;3.67;;
58553;SDS011;48119;53.218;6.576;2022-08-03T09:06:15;12.38;;;3.58;;
58553;SDS011;48119;53.218;6.576;2022-08-03T09:08:41;10.75;;;3.38;;
58553;SDS011;48119;53.218;6.576;2022-08-03T09:11:07;10.00;;;3.65;;
58553;SDS011;48119;53.218;6.576;2022-08-03T09:13:36;14.88;;;4.03;;
58553;SDS011;48119;53.218;6.576;2022-08-03T09:16:09;10.52;;;3.65;;
58553;SDS011;48119;53.218;6.576;2022-08-03T09:18:36;8.15;;;3.30;;
58553;SDS011;48119;53.218;6.576;2022-08-03T09:24:04;10.70;;;3.55;;
58553;SDS011;48119;53.218;6.576;2022-08-03T09:26:32;12.13;;;4.10;;
58553;SDS011;48119;53.218;6.576;2022-08-03T09:29:04;11.75;;;3.97;;
58553;SDS011;48119;53.218;6.576;2022-08-03T09:31:41;9.90;;;4.90;;
58553;SDS011;48119;53.218;6.576;2022-08-03T09:34:09;12.13;;;3.38;;
58553;SDS011;48119;53.218;6.576;2022-08-03T09:36:43;11.48;;;4.15;;
58553;SDS011;48119;53.218;6.576;2022-08-03T09:39:16;9.10;;;3.85;;
58553;SDS011;48119;53.218;6.576;2022-08-03T09:41:44;13.93;;;4.47;;
58553;SDS011;48119;53.218;6.576;2022-08-03T09:44:12;14.48;;;4.55;;
58553;SDS011;48119;53.218;6.576;2022-08-03T09:46:54;13.27;;;4.70;;
58553;SDS011;48119;53.218;6.576;2022-08-03T09:49:23;7.95;;;3.47;;
58553;SDS011;48119;53.218;6.576;2022-08-03T09:51:51;13.88;;;3.95;;
58553;SDS011;48119;53.218;6.576;2022-08-03T09:54:30;10.70;;;3.78;;
58553;SDS011;48119;53.218;6.576;2022-08-03T09:56:56;11.00;;;4.38;;
58553;SDS011;48119;53.218;6.576;2022-08-03T09:59:29;11.93;;;3.85;;
58553;SDS011;48119;53.218;6.576;2022-08-03T10:01:56;8.07;;;3.22;;
58553;SDS011;48119;53.218;6.576;2022-08-03T10:04:28;7.47;;;4.35;;
58553;SDS011;48119;53.218;6.576;2022-08-03T10:07:04;14.55;;;4.55;;
58553;SDS011;48119;53.218;6.576;2022-08-03T10:09:35;15.07;;;4.78;;
58553;SDS011;48119;53.218;6.576;2022-08-03T10:12:11;14.15;;;3.60;;
58553;SDS011;48119;53.218;6.576;2022-08-03T10:14:40;14.73;;;4.70;;
58553;SDS011;48119;53.218;6.576;2022-08-03T10:17:08;10.18;;;4.45;;
58553;SDS011;48119;53.218;6.576;2022-08-03T10:19:34;9.43;;;4.30;;
58553;SDS011;48119;53.218;6.576;2022-08-03T10:22:05;7.07;;;3.55;;
58553;SDS011;48119;53.218;6.576;2022-08-03T10:24:45;11.82;;;4.43;;
58553;SDS011;48119;53.218;6.576;2022-08-03T10:27:23;15.82;;;4.25;;
58553;SDS011;48119;53.218;6.576;2022-08-03T10:29:59;15.98;;;5.03;;
58553;SDS011;48119;53.218;6.576;2022-08-03T10:32:33;11.40;;;3.85;;
58553;SDS011;48119;53.218;6.576;2022-08-03T10:35:07;12.43;;;4.63;;
58553;SDS011;48119;53.218;6.576;2022-08-03T10:37:51;10.95;;;4.45;;
58553;SDS011;48119;53.218;6.576;2022-08-03T10:40:29;7.65;;;3.60;;
58553;SDS011;48119;53.218;6.576;2022-08-03T10:43:02;10.88;;;3.90;;
58553;SDS011;48119;53.218;6.576;2022-08-03T10:45:34;13.02;;;3.75;;
58553;SDS011;48119;53.218;6.576;2022-08-03T10:48:06;13.10;;;4.35;;
58553;SDS011;48119;53.218;6.576;2022-08-03T10:50:33;10.63;;;3.50;;
58553;SDS011;48119;53.218;6.576;2022-08-03T10:53:05;10.52;;;3.88;;
58553;SDS011;48119;53.218;6.576;2022-08-03T10:55:36;11.55;;;3.88;;
58553;SDS011;48119;53.218;6.576;2022-08-03T11:01:05;15.40;;;4.32;;
58553;SDS011;48119;53.218;6.576;2022-08-03T11:06:22;16.20;;;4.50;;
58553;SDS011;48119;53.218;6.576;2022-08-03T11:11:34;18.73;;;4.68;;
58553;SDS011;48119;53.218;6.576;2022-08-03T11:14:01;12.35;;;4.13;;
58553;SDS011;48119;53.218;6.576;2022-08-03T11:16:33;15.50;;;4.57;;
58553;SDS011;48119;53.218;6.576;2022-08-03T11:19:02;14.85;;;4.97;;
58553;SDS011;48119;53.218;6.576;2022-08-03T11:38:21;13.68;;;4.60;;
58553;SDS011;48119;53.218;6.576;2022-08-03T11:43:43;16.27;;;5.15;;
58553;SDS011;48119;53.218;6.576;2022-08-03T11:46:07;14.60;;;5.15;;
58553;SDS011;48119;53.218;6.576;2022-08-03T11:48:45;14.23;;;5.88;;
58553;SDS011;48119;53.218;6.576;2022-08-03T11:51:20;18.30;;;6.57;;
58553;SDS011;48119;53.218;6.576;2022-08-03T11:53:46;18.00;;;5.80;;
58553;SDS011;48119;53.218;6.576;2022-08-03T11:56:42;12.80;;;5.30;;
58553;SDS011;48119;53.218;6.576;2022-08-03T11:59:09;11.18;;;6.00;;
58553;SDS011;48119;53.218;6.576;2022-08-03T12:01:35;16.95;;;5.80;;
58553;SDS011;48119;53.218;6.576;2022-08-03T12:04:12;15.05;;;5.70;;
58553;SDS011;48119;53.218;6.576;2022-08-03T12:06:40;24.25;;;6.07;;
58553;SDS011;48119;53.218;6.576;2022-08-03T12:09:18;21.17;;;5.88;;
58553;SDS011;48119;53.218;6.576;2022-08-03T12:11:47;17.77;;;5.70;;
58553;SDS011;48119;53.218;6.576;2022-08-03T12:14:23;14.38;;;5.15;;
58553;SDS011;48119;53.218;6.576;2022-08-03T12:16:49;16.08;;;5.63;;
58553;SDS011;48119;53.218;6.576;2022-08-03T12:19:15;17.55;;;5.82;;
58553;SDS011;48119;53.218;6.576;2022-08-03T12:21:48;12.93;;;5.20;;
58553;SDS011;48119;53.218;6.576;2022-08-03T12:24:38;15.23;;;6.13;;
58553;SDS011;48119;53.218;6.576;2022-08-03T12:27:08;15.50;;;5.10;;
58553;SDS011;48119;53.218;6.576;2022-08-03T12:29:37;17.35;;;5.03;;
58553;SDS011;48119;53.218;6.576;2022-08-03T12:32:08;17.73;;;5.15;;
58553;SDS011;48119;53.218;6.576;2022-08-03T12:34:50;14.52;;;5.18;;
58553;SDS011;48119;53.218;6.576;2022-08-03T12:37:19;15.63;;;4.65;;
58553;SDS011;48119;53.218;6.576;2022-08-03T12:39:50;20.45;;;4.75;;
58553;SDS011;48119;53.218;6.576;2022-08-03T12:42:17;20.08;;;5.47;;
58553;SDS011;48119;53.218;6.576;2022-08-03T12:44:48;17.20;;;5.63;;
58553;SDS011;48119;53.218;6.576;2022-08-03T12:47:15;21.05;;;5.70;;
58553;SDS011;48119;53.218;6.576;2022-08-03T12:49:44;14.10;;;4.72;;
58553;SDS011;48119;53.218;6.576;2022-08-03T12:52:17;14.43;;;5.07;;
58553;SDS011;48119;53.218;6.576;2022-08-03T12:54:53;19.20;;;5.43;;
58553;SDS011;48119;53.218;6.576;2022-08-03T12:57:24;21.75;;;5.63;;
58553;SDS011;48119;53.218;6.576;2022-08-03T13:00:16;15.40;;;4.82;;
58553;SDS011;48119;53.218;6.576;2022-08-03T13:02:45;18.80;;;6.03;;
58553;SDS011;48119;53.218;6.576;2022-08-03T13:05:28;23.40;;;5.55;;
58553;SDS011;48119;53.218;6.576;2022-08-03T13:07:54;15.02;;;4.95;;
58553;SDS011;48119;53.218;6.576;2022-08-03T13:10:27;13.85;;;4.90;;
58553;SDS011;48119;53.218;6.576;2022-08-03T13:12:59;16.90;;;5.53;;
58553;SDS011;48119;53.218;6.576;2022-08-03T13:15:27;15.85;;;5.30;;
58553;SDS011;48119;53.218;6.576;2022-08-03T13:17:59;11.73;;;4.55;;
58553;SDS011;48119;53.218;6.576;2022-08-03T13:20:27;17.77;;;5.22;;
58553;SDS011;48119;53.218;6.576;2022-08-03T13:23:01;17.08;;;5.55;;
58553;SDS011;48119;53.218;6.576;2022-08-03T13:25:26;17.40;;;6.05;;
58553;SDS011;48119;53.218;6.576;2022-08-03T13:27:54;16.50;;;6.00;;
58553;SDS011;48119;53.218;6.576;2022-08-03T13:30:20;15.15;;;6.13;;
58553;SDS011;48119;53.218;6.576;2022-08-03T13:32:46;14.32;;;5.53;;
58553;SDS011;48119;53.218;6.576;2022-08-03T13:35:12;13.85;;;5.72;;
58553;SDS011;48119;53.218;6.576;2022-08-03T13:37:39;15.77;;;5.80;;
58553;SDS011;48119;53.218;6.576;2022-08-03T13:40:07;16.00;;;5.60;;
58553;SDS011;48119;53.218;6.576;2022-08-03T13:42:36;17.10;;;6.00;;
58553;SDS011;48119;53.218;6.576;2022-08-03T13:45:09;19.10;;;5.90;;
58553;SDS011;48119;53.218;6.576;2022-08-03T13:47:35;14.57;;;5.03;;
58553;SDS011;48119;53.218;6.576;2022-08-03T13:50:04;14.25;;;4.47;;
58553;SDS011;48119;53.218;6.576;2022-08-03T13:52:34;16.73;;;5.20;;
58553;SDS011;48119;53.218;6.576;2022-08-03T13:55:01;15.75;;;5.32;;
58553;SDS011;48119;53.218;6.576;2022-08-03T13:57:31;19.98;;;5.22;;
58553;SDS011;48119;53.218;6.576;2022-08-03T13:59:57;8.98;;;4.47;;
58553;SDS011;48119;53.218;6.576;2022-08-03T14:02:33;14.32;;;4.53;;
58553;SDS011;48119;53.218;6.576;2022-08-03T14:04:59;12.88;;;5.00;;
58553;SDS011;48119;53.218;6.576;2022-08-03T14:07:34;13.80;;;5.82;;
58553;SDS011;48119;53.218;6.576;2022-08-03T14:10:00;17.60;;;5.60;;
58553;SDS011;48119;53.218;6.576;2022-08-03T14:12:26;9.55;;;4.65;;
58553;SDS011;48119;53.218;6.576;2022-08-03T14:14:54;12.80;;;5.20;;
58553;SDS011;48119;53.218;6.576;2022-08-03T14:17:20;11.65;;;5.13;;
58553;SDS011;48119;53.218;6.576;2022-08-03T14:19:46;9.20;;;4.47;;
58553;SDS011;48119;53.218;6.576;2022-08-03T14:22:19;16.33;;;5.55;;
58553;SDS011;48119;53.218;6.576;2022-08-03T14:24:45;16.65;;;5.25;;
58553;SDS011;48119;53.218;6.576;2022-08-03T14:27:11;10.15;;;5.15;;
58553;SDS011;48119;53.218;6.576;2022-08-03T14:29:37;11.13;;;5.15;;
58553;SDS011;48119;53.218;6.576;2022-08-03T14:32:03;11.98;;;5.55;;
58553;SDS011;48119;53.218;6.576;2022-08-03T14:34:31;10.18;;;5.32;;
58553;SDS011;48119;53.218;6.576;2022-08-03T14:36:58;26.55;;;5.72;;
58553;SDS011;48119;53.218;6.576;2022-08-03T14:39:24;12.73;;;5.57;;
58553;SDS011;48119;53.218;6.576;2022-08-03T14:41:52;16.65;;;5.07;;
58553;SDS011;48119;53.218;6.576;2022-08-03T14:44:21;16.00;;;5.90;;
58553;SDS011;48119;53.218;6.576;2022-08-03T14:46:49;19.08;;;6.30;;
58553;SDS011;48119;53.218;6.576;2022-08-03T14:49:17;13.63;;;6.20;;
58553;SDS011;48119;53.218;6.576;2022-08-03T14:51:43;12.10;;;4.90;;
58553;SDS011;48119;53.218;6.576;2022-08-03T14:54:10;20.15;;;7.05;;
58553;SDS011;48119;53.218;6.576;2022-08-03T14:56:38;18.13;;;5.90;;
58553;SDS011;48119;53.218;6.576;2022-08-03T14:59:03;16.08;;;5.32;;
58553;SDS011;48119;53.218;6.576;2022-08-03T15:01:32;10.07;;;4.97;;
58553;SDS011;48119;53.218;6.576;2022-08-03T15:04:01;10.35;;;4.95;;
58553;SDS011;48119;53.218;6.576;2022-08-03T15:06:39;13.70;;;5.82;;
58553;SDS011;48119;53.218;6.576;2022-08-03T15:09:05;10.52;;;4.85;;
58553;SDS011;48119;53.218;6.576;2022-08-03T15:11:31;11.90;;;4.70;;
58553;SDS011;48119;53.218;6.576;2022-08-03T15:13:57;13.90;;;4.63;;
58553;SDS011;48119;53.218;6.576;2022-08-03T15:16:23;9.30;;;4.60;;
58553;SDS011;48119;53.218;6.576;2022-08-03T15:18:51;10.38;;;4.43;;
58553;SDS011;48119;53.218;6.576;2022-08-03T15:21:26;12.68;;;4.78;;
58553;SDS011;48119;53.218;6.576;2022-08-03T15:23:52;9.70;;;4.00;;
58553;SDS011;48119;53.218;6.576;2022-08-03T15:26:25;13.52;;;3.95;;
58553;SDS011;48119;53.218;6.576;2022-08-03T15:28:57;9.80;;;4.10;;
58553;SDS011;48119;53.218;6.576;2022-08-03T15:31:23;10.27;;;4.45;;
58553;SDS011;48119;53.218;6.576;2022-08-03T15:33:52;8.15;;;4.30;;
58553;SDS011;48119;53.218;6.576;2022-08-03T15:36:20;12.20;;;4.93;;
58553;SDS011;48119;53.218;6.576;2022-08-03T15:38:49;11.73;;;4.60;;